Time;durP1;ratioP1;P1;durP2;ratioP2;P2;SDS_P1;SDS_P2;PMS_P1;PMS_P2;Temp;Humidity;BMP_temperature;BMP_pressure;BME280_temperature;BME280_humidity;BME280_pressure;Samples;Min_cycle;Max_cycle;Signal;HPM_P1;HPM_P2
2022/08/17 00:00:31;;;;;;;10.23;1.48;;;42.90;39.60;;;;;;5053364;28;20033;-62
2022/08/17 00:03:16;;;;;;;8.38;1.30;;;42.80;39.90;;;;;;5068950;28;20457;-61
2022/08/17 00:05:47;;;;;;;9.13;1.23;;;42.70;40.10;;;;;;5068357;28;20024;-62
2022/08/17 00:08:16;;;;;;;8.65;1.10;;;42.50;40.10;;;;;;5068791;28;20020;-61
2022/08/17 00:10:44;;;;;;;9.80;1.55;;;42.30;40.00;;;;;;5052820;28;20031;-61
2022/08/17 00:13:33;;;;;;;17.42;1.30;;;42.00;40.40;;;;;;5068840;28;20032;-63
2022/08/17 00:16:03;;;;;;;7.22;1.30;;;42.00;40.70;;;;;;5066771;28;20505;-61
2022/08/17 00:18:31;;;;;;;9.07;1.23;;;41.90;41.00;;;;;;5067749;28;20053;-62
2022/08/17 00:20:58;;;;;;;5.80;1.00;;;41.80;40.70;;;;;;5068790;28;20028;-63
2022/08/17 00:23:26;;;;;;;5.60;1.27;;;41.70;41.30;;;;;;5068916;28;20025;-62
2022/08/17 00:25:52;;;;;;;6.78;1.30;;;41.70;41.80;;;;;;5073064;28;20035;-62
2022/08/17 00:28:19;;;;;;;11.80;1.42;;;41.50;43.00;;;;;;5068587;28;20547;-62
2022/08/17 00:30:48;;;;;;;12.45;1.30;;;41.40;41.60;;;;;;5068981;28;20020;-62
2022/08/17 00:33:23;;;;;;;10.57;2.15;;;41.30;41.00;;;;;;5079191;28;20031;-62
2022/08/17 00:35:50;;;;;;;15.43;1.70;;;41.20;41.10;;;;;;5067331;28;20043;-62
2022/08/17 00:38:17;;;;;;;11.55;1.30;;;41.20;41.40;;;;;;5084600;28;20064;-63
2022/08/17 00:40:48;;;;;;;9.80;1.67;;;41.00;41.20;;;;;;5068891;28;20042;-63
2022/08/17 00:43:29;;;;;;;8.02;1.13;;;40.90;41.40;;;;;;5066398;28;20088;-63
2022/08/17 00:45:57;;;;;;;10.43;1.60;;;40.80;41.40;;;;;;5083160;28;20039;-64
2022/08/17 00:48:23;;;;;;;15.02;1.90;;;40.80;41.60;;;;;;5067741;28;20035;-63
2022/08/17 00:51:16;;;;;;;8.63;1.63;;;40.60;41.70;;;;;;5062336;28;20044;-63
2022/08/17 00:53:50;;;;;;;7.07;1.13;;;40.60;41.80;;;;;;5071049;28;20047;-64
2022/08/17 00:56:25;;;;;;;10.07;1.35;;;40.50;41.80;;;;;;5069300;28;20080;-61
2022/08/17 00:58:53;;;;;;;11.02;1.25;;;40.40;41.90;;;;;;5064754;28;20047;-62
2022/08/17 01:01:20;;;;;;;9.15;1.63;;;40.40;42.40;;;;;;5067093;28;20068;-62
2022/08/17 01:03:47;;;;;;;4.07;1.05;;;40.30;42.00;;;;;;5067891;28;20095;-66
2022/08/17 01:06:14;;;;;;;7.75;1.30;;;40.30;41.80;;;;;;5067792;28;20042;-63
2022/08/17 01:08:41;;;;;;;10.40;1.50;;;40.30;41.90;;;;;;5067374;28;20070;-63
2022/08/17 01:11:07;;;;;;;10.20;1.63;;;40.20;41.80;;;;;;5068630;28;20137;-62
2022/08/17 01:13:38;;;;;;;12.73;1.65;;;40.10;42.00;;;;;;5069409;28;20056;-62
2022/08/17 01:16:27;;;;;;;15.98;1.63;;;40.10;42.10;;;;;;5069429;28;20042;-62
2022/08/17 01:19:00;;;;;;;16.27;2.00;;;40.00;42.20;;;;;;5051488;28;20065;-62
2022/08/17 01:21:33;;;;;;;13.50;1.77;;;39.90;41.60;;;;;;5067951;28;20107;-62
2022/08/17 01:24:00;;;;;;;11.98;1.65;;;39.90;41.60;;;;;;5067024;28;20087;-62
2022/08/17 01:26:31;;;;;;;19.00;2.33;;;39.90;41.80;;;;;;5067179;28;20123;-63
2022/08/17 01:29:04;;;;;;;13.80;1.73;;;39.90;42.00;;;;;;5069491;28;20126;-63
2022/08/17 01:31:36;;;;;;;13.45;1.77;;;39.80;42.10;;;;;;5068161;28;20045;-63
2022/08/17 01:34:07;;;;;;;16.42;1.75;;;39.70;40.60;;;;;;5068012;28;20532;-64
2022/08/17 01:36:36;;;;;;;9.02;1.85;;;39.70;40.20;;;;;;5067132;28;20482;-63
2022/08/17 01:39:05;;;;;;;11.52;1.80;;;39.60;40.30;;;;;;5068609;28;20072;-64
2022/08/17 01:41:33;;;;;;;12.60;2.25;;;39.60;41.20;;;;;;5068283;28;20068;-63
2022/08/17 01:44:06;;;;;;;21.08;2.20;;;39.60;42.00;;;;;;5065840;28;20469;-62
2022/08/17 01:46:35;;;;;;;24.27;2.80;;;39.60;42.70;;;;;;5066764;28;20047;-63
2022/08/17 01:49:08;;;;;;;16.08;2.55;;;39.50;42.90;;;;;;5068207;28;20463;-63
2022/08/17 01:51:35;;;;;;;15.75;2.08;;;39.50;42.30;;;;;;5084110;28;20051;-65
2022/08/17 01:54:10;;;;;;;15.13;2.17;;;39.40;42.10;;;;;;5068053;28;20079;-63
2022/08/17 01:56:41;;;;;;;12.27;1.77;;;39.40;42.10;;;;;;5069995;28;20083;-63
2022/08/17 01:59:07;;;;;;;17.25;2.10;;;39.30;43.00;;;;;;5070130;28;20058;-62
2022/08/17 02:01:35;;;;;;;18.92;2.75;;;39.30;44.10;;;;;;5084719;28;20051;-63
2022/08/17 02:04:04;;;;;;;15.02;2.22;;;39.20;44.30;;;;;;5068204;28;20071;-62
2022/08/17 02:06:34;;;;;;;20.88;2.10;;;39.10;44.20;;;;;;5068814;28;20101;-61
2022/08/17 02:09:01;;;;;;;22.17;2.70;;;39.10;44.60;;;;;;5068278;28;20048;-63
2022/08/17 02:11:28;;;;;;;20.20;2.90;;;39.00;44.20;;;;;;5069087;28;20055;-63
2022/08/17 02:13:55;;;;;;;27.58;2.50;;;39.00;44.40;;;;;;5071019;28;20051;-63
2022/08/17 02:16:21;;;;;;;15.95;2.97;;;38.90;45.10;;;;;;5084602;28;20044;-64
2022/08/17 02:18:48;;;;;;;19.92;2.33;;;38.90;45.40;;;;;;5069870;28;20471;-64
2022/08/17 02:21:14;;;;;;;32.03;3.08;;;38.80;45.80;;;;;;5068962;28;20604;-63
2022/08/17 02:23:44;;;;;;;23.55;2.50;;;38.80;46.10;;;;;;5067678;28;20070;-62
2022/08/17 02:26:11;;;;;;;12.10;2.55;;;38.70;46.50;;;;;;5052168;28;20044;-63
2022/08/17 02:28:37;;;;;;;18.33;2.72;;;38.70;46.70;;;;;;5068139;28;20074;-63
2022/08/17 02:31:07;;;;;;;19.50;2.00;;;38.60;47.00;;;;;;5069546;28;20716;-65
2022/08/17 02:33:35;;;;;;;14.88;2.25;;;38.40;47.70;;;;;;5051078;28;20049;-62
2022/08/17 02:36:03;;;;;;;19.95;2.90;;;38.40;48.00;;;;;;5067186;28;20133;-63
2022/08/17 02:38:30;;;;;;;17.42;2.55;;;38.30;48.30;;;;;;5068807;28;20535;-62
2022/08/17 02:40:58;;;;;;;19.95;2.20;;;38.30;48.60;;;;;;5067727;28;20089;-61
2022/08/17 02:43:26;;;;;;;23.77;2.88;;;38.20;48.80;;;;;;5067530;28;20423;-64
2022/08/17 02:45:53;;;;;;;26.75;2.70;;;38.20;49.10;;;;;;5065493;28;20057;-62
2022/08/17 02:48:20;;;;;;;29.38;3.20;;;38.10;49.50;;;;;;5067787;28;20058;-62
2022/08/17 02:50:47;;;;;;;26.13;2.92;;;38.10;49.70;;;;;;5067268;28;20050;-65
2022/08/17 02:53:13;;;;;;;18.40;2.58;;;38.00;49.90;;;;;;5050974;28;20048;-63
2022/08/17 02:55:41;;;;;;;24.10;2.20;;;38.00;50.20;;;;;;5071781;28;20088;-63
2022/08/17 02:58:09;;;;;;;31.40;2.72;;;37.90;50.80;;;;;;5067763;28;20050;-64
2022/08/17 03:00:41;;;;;;;24.67;2.88;;;37.90;50.50;;;;;;5068638;28;20065;-62
2022/08/17 03:03:09;;;;;;;69.57;5.10;;;37.80;50.60;;;;;;5072881;28;20060;-64
2022/08/17 03:05:37;;;;;;;39.38;3.30;;;37.70;50.60;;;;;;5072006;28;20108;-62
2022/08/17 03:08:05;;;;;;;23.85;2.47;;;37.70;50.70;;;;;;5072271;28;20043;-62
2022/08/17 03:10:32;;;;;;;24.52;2.38;;;37.60;50.70;;;;;;5071156;28;20065;-63
2022/08/17 03:12:58;;;;;;;28.88;2.75;;;37.60;51.00;;;;;;5071575;28;20048;-64
2022/08/17 03:15:30;;;;;;;10.63;2.00;;;37.60;51.20;;;;;;5071964;28;20071;-63
2022/08/17 03:17:57;;;;;;;29.30;3.03;;;37.50;51.20;;;;;;5070358;28;20074;-63
2022/08/17 03:20:25;;;;;;;11.63;2.58;;;37.50;51.40;;;;;;5070347;28;20055;-63
2022/08/17 03:22:54;;;;;;;23.80;3.45;;;37.50;51.50;;;;;;5072438;28;20057;-63
2022/08/17 03:25:33;;;;;;;23.35;3.03;;;37.40;51.70;;;;;;5088498;28;20627;-62
2022/08/17 03:27:59;;;;;;;17.90;3.40;;;37.40;51.80;;;;;;5054845;28;20063;-62
2022/08/17 03:30:27;;;;;;;18.90;2.45;;;37.30;52.30;;;;;;5072312;28;20403;-62
2022/08/17 03:32:56;;;;;;;22.38;2.53;;;37.30;52.60;;;;;;5071068;28;20079;-58
2022/08/17 03:35:26;;;;;;;27.42;3.03;;;37.20;52.90;;;;;;5069998;28;20503;-63
2022/08/17 03:37:53;;;;;;;23.25;2.35;;;37.20;53.10;;;;;;5054190;28;20157;-61
2022/08/17 03:40:19;;;;;;;23.13;2.67;;;37.10;53.10;;;;;;5068889;28;20051;-62
2022/08/17 03:42:46;;;;;;;20.83;2.33;;;37.10;53.30;;;;;;5071272;28;20070;-62
2022/08/17 03:56:40;;;;;;;19.88;2.90;;;37.10;53.40;;;;;;5071055;28;20046;-60
2022/08/17 03:56:41;;;;;;;22.65;2.97;;;36.90;53.50;;;;;;5071927;28;20109;-62
2022/08/17 03:59:18;;;;;;;29.75;3.60;;;36.90;53.60;;;;;;5069385;28;20521;-62
2022/08/17 04:01:47;;;;;;;21.00;2.97;;;36.80;53.60;;;;;;5070365;28;20063;-63
2022/08/17 04:04:14;;;;;;;25.88;3.03;;;36.80;53.80;;;;;;5070512;28;20073;-62
2022/08/17 04:06:41;;;;;;;20.27;3.00;;;36.80;53.90;;;;;;5071576;28;20055;-63
2022/08/17 04:09:08;;;;;;;30.77;3.00;;;36.70;53.90;;;;;;5070362;28;20093;-61
2022/08/17 04:11:36;;;;;;;27.92;2.92;;;36.70;54.80;;;;;;5069889;28;20048;-61
2022/08/17 04:14:03;;;;;;;32.38;3.00;;;36.60;54.30;;;;;;5053288;28;20430;-63
2022/08/17 04:16:30;;;;;;;38.10;3.58;;;36.60;54.60;;;;;;5053541;28;20078;-62
2022/08/17 04:18:57;;;;;;;26.77;3.00;;;36.60;54.90;;;;;;5069691;28;20168;-62
2022/08/17 04:21:23;;;;;;;24.52;3.38;;;36.50;55.30;;;;;;5069984;28;20070;-63
2022/08/17 04:23:50;;;;;;;19.08;3.30;;;36.50;55.70;;;;;;5068990;28;20107;-61
2022/08/17 04:26:18;;;;;;;40.45;3.35;;;36.40;56.00;;;;;;5070532;28;20494;-62
2022/08/17 04:28:44;;;;;;;33.35;4.55;;;36.40;56.00;;;;;;5069597;28;20054;-62
2022/08/17 04:31:13;;;;;;;21.05;3.25;;;36.30;56.10;;;;;;5071289;28;20557;-62
2022/08/17 04:33:42;;;;;;;34.80;3.72;;;36.30;57.50;;;;;;5068818;28;20083;-62
2022/08/17 04:36:10;;;;;;;17.80;2.90;;;36.30;57.40;;;;;;5068748;28;20069;-58
2022/08/17 04:38:39;;;;;;;19.70;3.35;;;36.20;58.10;;;;;;5069103;28;20121;-63
2022/08/17 04:43:57;;;;;;;17.13;2.85;;;36.10;58.90;;;;;;5070492;28;20174;-63
2022/08/17 04:46:41;;;;;;;17.88;2.95;;;36.00;59.30;;;;;;5068850;28;20842;-62
2022/08/17 04:49:10;;;;;;;15.07;2.03;;;35.90;59.70;;;;;;5083397;28;20123;-63
2022/08/17 04:51:45;;;;;;;16.30;2.30;;;35.90;60.10;;;;;;5068996;28;20176;-62
2022/08/17 04:54:16;;;;;;;10.98;3.15;;;35.80;60.70;;;;;;5067685;28;20070;-62
2022/08/17 04:56:43;;;;;;;13.73;2.20;;;35.70;61.00;;;;;;5071580;28;20074;-65
2022/08/17 04:59:19;;;;;;;14.73;2.60;;;35.70;61.70;;;;;;5069515;28;20063;-63
2022/08/17 05:01:49;;;;;;;12.73;2.10;;;35.60;62.60;;;;;;5069793;28;20074;-60
2022/08/17 05:04:22;;;;;;;22.08;2.13;;;35.60;63.20;;;;;;5069736;28;20130;-63
2022/08/17 05:06:48;;;;;;;13.48;2.28;;;35.50;63.90;;;;;;5070798;28;20115;-57
2022/08/17 05:09:16;;;;;;;14.88;2.30;;;35.40;64.20;;;;;;5069076;28;20064;-65
2022/08/17 05:11:43;;;;;;;18.98;2.60;;;35.40;64.60;;;;;;5067945;28;20082;-64
2022/08/17 05:14:10;;;;;;;20.65;2.85;;;35.40;64.60;;;;;;5069090;28;20074;-62
2022/08/17 05:16:36;;;;;;;18.75;2.10;;;35.30;64.70;;;;;;5069612;28;20143;-62
2022/08/17 05:19:03;;;;;;;17.63;2.55;;;35.30;64.90;;;;;;5068180;28;20082;-63
2022/08/17 05:21:30;;;;;;;19.75;2.60;;;35.30;65.00;;;;;;5068259;28;20064;-62
2022/08/17 05:23:57;;;;;;;21.23;2.78;;;35.20;65.30;;;;;;5084105;28;20085;-63
2022/08/17 05:26:26;;;;;;;8.88;2.10;;;35.20;65.60;;;;;;5069283;28;20065;-63
2022/08/17 05:28:53;;;;;;;12.23;2.03;;;35.20;65.90;;;;;;5067746;28;20615;-62
2022/08/17 05:31:20;;;;;;;17.98;2.35;;;35.10;66.00;;;;;;5069891;28;20514;-62
2022/08/17 05:33:48;;;;;;;15.73;2.83;;;35.10;65.70;;;;;;5067524;28;20138;-63
2022/08/17 05:36:15;;;;;;;11.52;2.28;;;35.10;65.80;;;;;;5067006;28;20427;-63
2022/08/17 05:38:41;;;;;;;20.75;2.00;;;35.10;65.70;;;;;;5068519;28;20201;-62
2022/08/17 05:41:09;;;;;;;21.27;2.45;;;35.10;65.70;;;;;;5066960;28;20116;-62
2022/08/17 05:43:38;;;;;;;11.07;2.25;;;35.00;65.50;;;;;;5068172;28;20074;-62
2022/08/17 05:46:31;;;;;;;13.77;2.35;;;35.00;65.00;;;;;;5084689;28;20063;-62
2022/08/17 05:49:04;;;;;;;17.05;2.42;;;35.00;64.70;;;;;;5069238;28;20087;-62
2022/08/17 05:51:44;;;;;;;16.75;2.33;;;35.00;64.60;;;;;;5069690;28;20436;-62
2022/08/17 05:54:26;;;;;;;11.05;2.63;;;34.90;64.50;;;;;;5068896;28;20149;-62
2022/08/17 05:56:58;;;;;;;15.95;3.00;;;34.90;64.60;;;;;;5067758;28;20437;-61
2022/08/17 05:59:34;;;;;;;13.75;2.95;;;34.90;65.20;;;;;;5067732;28;20555;-63
2022/08/17 06:02:04;;;;;;;16.23;2.65;;;34.90;64.40;;;;;;5069201;28;20099;-63
2022/08/17 06:04:31;;;;;;;16.23;2.83;;;34.90;64.50;;;;;;5067470;28;20694;-64
2022/08/17 06:07:21;;;;;;;12.52;2.63;;;34.90;64.50;;;;;;5068166;28;20125;-63
2022/08/17 06:10:03;;;;;;;10.73;2.25;;;34.90;64.80;;;;;;5067293;28;21364;-62
2022/08/17 06:12:38;;;;;;;15.40;3.13;;;34.90;64.60;;;;;;5068659;28;20519;-62
2022/08/17 06:15:30;;;;;;;14.38;2.58;;;34.90;64.60;;;;;;5067701;28;20125;-62
2022/08/17 06:18:05;;;;;;;9.23;2.58;;;34.90;65.30;;;;;;5050644;28;20169;-62
2022/08/17 06:20:54;;;;;;;14.38;2.58;;;34.80;65.60;;;;;;5067205;28;20068;-64
2022/08/17 06:23:38;;;;;;;15.38;2.80;;;34.80;65.90;;;;;;5067370;28;20184;-61
2022/08/17 06:26:16;;;;;;;13.70;2.85;;;34.70;65.80;;;;;;5067269;28;20096;-65
2022/08/17 06:29:07;;;;;;;14.00;2.45;;;34.70;65.90;;;;;;5067285;28;20143;-63
2022/08/17 06:31:40;;;;;;;16.80;2.47;;;34.70;66.10;;;;;;5071316;28;20068;-61
2022/08/17 06:34:11;;;;;;;21.90;2.65;;;34.60;66.40;;;;;;5050540;28;20787;-62
2022/08/17 06:37:04;;;;;;;11.20;2.75;;;34.60;66.20;;;;;;5068336;28;20064;-63
2022/08/17 06:40:01;;;;;;;17.10;3.20;;;34.50;66.20;;;;;;5053710;28;20522;-61
2022/08/17 06:42:56;;;;;;;15.77;3.05;;;34.50;66.60;;;;;;5070884;28;20074;-62
2022/08/17 06:45:48;;;;;;;12.25;3.15;;;34.50;67.10;;;;;;5057650;28;20123;-63
2022/08/17 06:48:21;;;;;;;15.35;2.97;;;34.50;67.40;;;;;;5070308;28;20074;-61
2022/08/17 06:51:09;;;;;;;8.48;3.13;;;34.50;67.50;;;;;;5069978;28;20089;-62
2022/08/17 06:53:49;;;;;;;11.15;3.00;;;34.50;68.60;;;;;;5056000;28;20063;-62
2022/08/17 06:56:46;;;;;;;7.93;2.75;;;34.40;68.20;;;;;;5087152;28;20493;-62
2022/08/17 06:59:19;;;;;;;12.68;2.40;;;34.40;68.60;;;;;;5013097;28;20461;-62
2022/08/17 07:01:48;;;;;;;13.30;2.00;;;34.40;68.90;;;;;;4996679;28;20372;-60
2022/08/17 07:04:20;;;;;;;9.82;2.33;;;34.30;69.20;;;;;;5028387;28;20225;-62
2022/08/17 07:08:00;;;;;;;13.23;2.35;;;34.50;69.50;;;;;;4997441;28;20081;-63
2022/08/17 07:09:56;;;;;;;8.60;2.22;;;34.70;70.10;;;;;;5029256;28;20430;-63
2022/08/17 07:12:36;;;;;;;4.75;2.00;;;34.80;70.30;;;;;;5030787;28;20197;-63
2022/08/17 07:15:12;;;;;;;9.60;2.58;;;34.80;70.40;;;;;;4998617;28;20871;-63
2022/08/17 07:17:39;;;;;;;7.57;2.35;;;34.90;70.30;;;;;;5012874;28;20117;-64
2022/08/17 07:20:14;;;;;;;6.50;2.25;;;34.90;70.40;;;;;;5013536;28;20093;-61
2022/08/17 07:23:00;;;;;;;10.70;2.15;;;34.80;70.40;;;;;;5029796;28;20299;-62
2022/08/17 07:25:29;;;;;;;16.20;2.30;;;34.80;71.30;;;;;;5029146;28;20094;-64
2022/08/17 07:27:59;;;;;;;10.10;2.30;;;34.70;71.50;;;;;;5024906;28;20082;-64
2022/08/17 07:30:27;;;;;;;7.20;2.45;;;34.60;72.00;;;;;;5029047;28;20656;-64
2022/08/17 07:33:10;;;;;;;14.68;3.10;;;34.50;72.50;;;;;;5012030;28;20099;-64
2022/08/17 07:35:40;;;;;;;9.10;2.80;;;34.50;72.90;;;;;;5031391;28;20076;-61
2022/08/17 07:38:20;;;;;;;11.45;2.60;;;34.50;73.10;;;;;;5070194;28;20065;-64
2022/08/17 07:43:29;;;;;;;12.98;2.58;;;34.50;73.80;;;;;;5070439;28;20089;-64
2022/08/17 07:49:30;;;;;;;12.15;2.83;;;34.30;74.20;;;;;;5069658;28;20083;-64
2022/08/17 07:52:04;;;;;;;10.90;2.40;;;34.30;74.60;;;;;;5069982;28;20074;-65
2022/08/17 07:54:37;;;;;;;13.40;2.65;;;34.30;74.80;;;;;;5069687;28;20123;-64
2022/08/17 07:57:13;;;;;;;11.13;2.20;;;34.10;75.30;;;;;;5070167;28;20164;-64
2022/08/17 07:59:42;;;;;;;14.95;2.35;;;34.00;75.80;;;;;;5070945;28;20077;-64
2022/08/17 08:02:38;;;;;;;8.48;2.30;;;34.00;77.20;;;;;;5069229;28;20074;-64
2022/08/17 08:05:18;;;;;;;10.20;2.70;;;33.90;76.80;;;;;;5070275;28;20496;-63
2022/08/17 08:07:53;;;;;;;13.55;2.70;;;33.90;77.30;;;;;;5069491;28;20068;-62
2022/08/17 08:10:40;;;;;;;12.45;2.22;;;33.70;77.90;;;;;;5069771;28;20071;-62
2022/08/17 08:13:27;;;;;;;7.50;2.53;;;33.70;78.80;;;;;;5069207;28;20421;-63
2022/08/17 08:16:10;;;;;;;14.57;2.35;;;33.70;79.40;;;;;;5068244;28;20095;-64
2022/08/17 08:18:43;;;;;;;14.45;2.42;;;33.60;80.10;;;;;;5067899;28;20090;-63
2022/08/17 08:21:19;;;;;;;10.52;2.35;;;33.50;81.20;;;;;;5053331;28;20074;-62
2022/08/17 08:23:49;;;;;;;11.30;2.20;;;33.40;81.90;;;;;;5069043;28;20080;-63
2022/08/17 08:26:19;;;;;;;10.85;2.33;;;33.40;82.40;;;;;;5069645;28;20547;-63
2022/08/17 08:29:21;;;;;;;12.35;2.83;;;33.30;82.50;;;;;;5069543;28;20120;-63
2022/08/17 08:32:19;;;;;;;12.30;2.65;;;33.20;83.10;;;;;;5070050;28;20067;-63
2022/08/17 08:35:29;;;;;;;13.70;2.92;;;33.30;83.40;;;;;;5063178;28;20082;-62
2022/08/17 08:38:06;;;;;;;11.32;1.92;;;33.40;83.20;;;;;;5063158;28;20427;-64
2022/08/17 08:41:00;;;;;;;10.77;2.65;;;33.30;83.50;;;;;;5068879;28;20073;-64
2022/08/17 08:43:44;;;;;;;14.13;2.45;;;33.20;83.90;;;;;;5067754;28;20095;-64
2022/08/17 08:46:29;;;;;;;10.38;2.00;;;33.30;83.90;;;;;;5068202;28;20063;-63
2022/08/17 08:49:20;;;;;;;8.77;2.30;;;33.30;84.10;;;;;;5066393;28;21272;-65
2022/08/17 08:51:54;;;;;;;12.23;2.20;;;33.30;84.30;;;;;;5083542;28;20157;-63
2022/08/17 08:54:40;;;;;;;11.02;2.47;;;33.20;84.80;;;;;;5069245;28;20092;-63
2022/08/17 08:57:32;;;;;;;13.68;2.28;;;33.10;85.40;;;;;;5083493;28;20072;-63
2022/08/17 09:00:02;;;;;;;9.85;2.20;;;33.10;86.00;;;;;;5067406;28;20109;-63
2022/08/17 09:03:08;;;;;;;9.48;2.28;;;33.10;86.20;;;;;;5068915;28;20083;-62
2022/08/17 09:05:57;;;;;;;9.00;2.50;;;33.00;86.40;;;;;;5069609;28;20096;-62
2022/08/17 09:09:06;;;;;;;11.98;2.33;;;33.00;86.90;;;;;;5067273;28;20063;-63
2022/08/17 09:11:43;;;;;;;11.95;2.55;;;32.90;87.00;;;;;;5052858;28;20125;-64
2022/08/17 09:14:31;;;;;;;6.38;1.90;;;32.90;87.40;;;;;;5067042;28;20170;-64
2022/08/17 09:17:11;;;;;;;7.82;2.30;;;32.80;87.70;;;;;;5093127;28;20076;-63
2022/08/17 09:19:51;;;;;;;9.27;2.35;;;32.80;88.10;;;;;;5052617;28;20072;-62
2022/08/17 09:22:38;;;;;;;8.07;1.75;;;32.80;88.40;;;;;;5068013;28;20067;-64
2022/08/17 09:25:12;;;;;;;9.63;2.75;;;32.70;88.50;;;;;;5067036;28;20142;-63
2022/08/17 09:28:16;;;;;;;11.30;2.00;;;32.80;88.70;;;;;;5068644;28;20164;-64
2022/08/17 09:31:00;;;;;;;8.15;2.45;;;32.80;88.70;;;;;;5067522;28;20071;-63
2022/08/17 09:33:27;;;;;;;11.95;2.10;;;32.70;88.30;;;;;;5068062;28;20083;-63
2022/08/17 09:36:14;;;;;;;10.52;2.10;;;32.80;88.60;;;;;;5068570;28;20087;-62
2022/08/17 09:38:49;;;;;;;10.90;2.53;;;32.70;88.50;;;;;;5068150;28;20414;-63
2022/08/17 09:41:27;;;;;;;8.43;1.95;;;32.70;88.50;;;;;;5066330;28;20148;-62
2022/08/17 09:44:22;;;;;;;13.00;2.40;;;32.70;88.90;;;;;;5066439;28;20094;-62
2022/08/17 09:46:54;;;;;;;7.88;2.58;;;32.70;88.70;;;;;;5050789;28;20556;-63
2022/08/17 09:49:37;;;;;;;8.30;2.50;;;32.70;88.90;;;;;;5067440;28;20078;-62
2022/08/17 09:52:20;;;;;;;13.18;2.70;;;32.70;89.20;;;;;;5065686;28;20072;-62
2022/08/17 09:54:50;;;;;;;10.80;2.78;;;32.60;89.20;;;;;;5067207;28;20111;-63
2022/08/17 09:57:23;;;;;;;14.27;2.85;;;32.60;89.30;;;;;;5067543;28;20084;-64
2022/08/17 10:00:00;;;;;;;8.68;2.50;;;32.60;90.10;;;;;;5068525;28;20460;-62
2022/08/17 10:02:41;;;;;;;10.73;2.33;;;32.60;89.60;;;;;;5051101;28;20074;-63
2022/08/17 10:05:21;;;;;;;12.57;2.10;;;32.60;90.00;;;;;;5068110;28;20095;-62
2022/08/17 10:08:21;;;;;;;8.25;2.13;;;32.60;90.20;;;;;;5066805;28;20075;-63
2022/08/17 10:11:06;;;;;;;9.27;2.38;;;32.60;90.50;;;;;;5045120;28;20080;-65
2022/08/17 10:13:38;;;;;;;11.32;2.35;;;32.60;90.70;;;;;;5068085;28;20083;-66
2022/08/17 10:16:24;;;;;;;9.88;2.35;;;32.60;90.90;;;;;;5055721;28;20077;-62
2022/08/17 10:19:05;;;;;;;8.27;2.10;;;32.60;91.30;;;;;;5050629;28;20174;-64
2022/08/17 10:27:26;;;;;;;9.93;2.30;;;32.40;92.20;;;;;;5069028;28;20543;-61
2022/08/17 10:30:06;;;;;;;10.70;2.47;;;32.30;92.50;;;;;;5068892;28;20523;-62
2022/08/17 10:32:53;;;;;;;6.70;2.28;;;32.30;92.80;;;;;;5067293;28;20158;-62
2022/08/17 10:35:38;;;;;;;12.52;2.33;;;32.40;92.90;;;;;;5067847;28;20182;-61
2022/08/17 10:38:18;;;;;;;6.85;2.08;;;32.30;93.10;;;;;;5068595;28;20080;-61
2022/08/17 10:40:53;;;;;;;6.72;2.28;;;32.20;93.40;;;;;;5067651;28;20071;-62
2022/08/17 10:43:38;;;;;;;8.48;2.35;;;32.20;93.50;;;;;;5067163;28;20095;-62
2022/08/17 10:46:19;;;;;;;11.80;2.55;;;32.20;93.60;;;;;;5068766;28;20071;-63
2022/08/17 10:49:17;;;;;;;10.88;2.28;;;32.20;93.80;;;;;;5068347;28;20480;-62
2022/08/17 10:51:51;;;;;;;10.55;2.35;;;32.20;94.00;;;;;;5069401;28;20568;-61
2022/08/17 10:54:24;;;;;;;11.88;2.25;;;32.20;94.30;;;;;;5065656;28;20078;-61
2022/08/17 10:56:53;;;;;;;11.48;2.33;;;32.10;94.50;;;;;;5083793;28;20548;-61
2022/08/17 10:59:34;;;;;;;13.00;2.65;;;32.00;94.60;;;;;;5065969;28;20080;-62
2022/08/17 11:02:04;;;;;;;9.52;3.15;;;32.10;94.80;;;;;;5066189;28;20076;-62
2022/08/17 11:04:36;;;;;;;14.57;2.63;;;32.00;94.90;;;;;;5069058;28;20572;-64
2022/08/17 11:07:18;;;;;;;13.73;2.72;;;32.00;95.10;;;;;;5065544;28;20436;-62
2022/08/17 11:10:23;;;;;;;9.27;2.53;;;32.00;95.20;;;;;;5050053;28;20130;-61
2022/08/17 11:13:00;;;;;;;17.02;2.90;;;32.00;95.40;;;;;;5049721;28;20076;-61
2022/08/17 11:15:40;;;;;;;11.77;2.80;;;32.00;95.40;;;;;;5050655;28;20090;-61
2022/08/17 11:18:14;;;;;;;14.90;2.67;;;32.00;95.40;;;;;;5083338;28;20126;-61
2022/08/17 11:21:07;;;;;;;11.23;2.67;;;32.00;95.40;;;;;;5066650;28;20476;-62
2022/08/17 11:24:01;;;;;;;7.22;2.40;;;32.00;95.40;;;;;;5070680;28;20104;-63
2022/08/17 11:26:32;;;;;;;8.07;2.58;;;32.00;95.70;;;;;;5086340;28;20433;-61
2022/08/17 11:29:28;;;;;;;14.80;2.22;;;32.00;95.80;;;;;;5071534;28;20067;-62
2022/08/17 11:32:22;;;;;;;13.20;2.28;;;32.00;96.00;;;;;;5070067;28;20148;-62
2022/08/17 11:34:49;;;;;;;12.48;2.45;;;32.00;96.30;;;;;;5068276;28;20502;-61
2022/08/17 11:38:10;;;;;;;11.05;2.72;;;31.90;96.40;;;;;;5070152;28;20086;-61
2022/08/17 11:40:52;;;;;;;12.18;2.40;;;31.90;96.60;;;;;;5015853;28;20139;-62
2022/08/17 11:43:43;;;;;;;11.13;2.92;;;31.90;96.80;;;;;;5024558;28;20592;-62
2022/08/17 11:52:41;;;;;;;8.57;2.90;;;31.80;97.50;;;;;;5022817;28;20142;-61
2022/08/17 11:55:31;;;;;;;9.63;2.83;;;31.90;97.80;;;;;;5023398;28;20199;-63
2022/08/17 11:58:04;;;;;;;6.57;2.75;;;31.90;98.10;;;;;;5026188;28;20106;-62
2022/08/17 12:00:48;;;;;;;12.50;2.90;;;31.90;98.40;;;;;;4998704;28;20579;-61
2022/08/17 12:03:23;;;;;;;11.38;2.83;;;31.80;98.70;;;;;;5006453;28;20096;-62
2022/08/17 12:06:01;;;;;;;9.10;2.58;;;31.80;99.10;;;;;;5023509;28;20541;-63
2022/08/17 12:08:31;;;;;;;10.63;2.97;;;31.80;99.60;;;;;;5008293;28;20092;-61
2022/08/17 12:11:10;;;;;;;11.35;2.97;;;31.80;99.90;;;;;;5007267;28;20099;-61
2022/08/17 12:13:57;;;;;;;11.48;2.85;;;31.80;99.90;;;;;;5006313;28;20083;-61
2022/08/17 12:16:24;;;;;;;10.23;2.80;;;31.80;99.90;;;;;;5034634;28;20177;-61
2022/08/17 12:18:57;;;;;;;13.52;3.45;;;31.80;99.90;;;;;;5053089;28;20479;-62
2022/08/17 12:21:42;;;;;;;10.38;3.67;;;31.80;99.90;;;;;;5070614;28;20544;-63
2022/08/17 12:24:31;;;;;;;11.73;3.28;;;31.80;99.90;;;;;;5078040;28;20091;-61
2022/08/17 12:27:03;;;;;;;13.15;4.20;;;31.80;99.90;;;;;;5053758;28;20487;-61
2022/08/17 12:29:31;;;;;;;17.25;4.40;;;31.80;99.90;;;;;;5053566;28;20075;-61
2022/08/17 12:32:00;;;;;;;12.95;4.00;;;31.70;99.90;;;;;;5069160;28;20098;-61
2022/08/17 12:34:39;;;;;;;14.43;3.75;;;31.70;99.90;;;;;;5068839;28;20072;-61
2022/08/17 12:37:15;;;;;;;16.30;4.10;;;31.70;99.90;;;;;;5068845;28;20076;-62
2022/08/17 12:40:16;;;;;;;17.50;3.53;;;31.60;99.90;;;;;;5068806;28;20079;-61
2022/08/17 12:43:03;;;;;;;13.05;3.40;;;31.60;99.90;;;;;;5068408;28;20153;-62
2022/08/17 12:45:33;;;;;;;;;;;31.60;99.90;;;;;;5070363;28;20070;-62
2022/08/17 12:48:09;;;;;;;10.93;3.13;;;31.60;99.90;;;;;;5068753;28;19962;-63
2022/08/17 12:50:39;;;;;;;11.15;3.17;;;31.50;99.90;;;;;;5068429;28;20081;-62
2022/08/17 12:53:26;;;;;;;17.48;3.30;;;31.50;99.90;;;;;;5052510;28;20202;-62
2022/08/17 12:55:54;;;;;;;7.90;2.55;;;31.40;99.90;;;;;;5068929;28;20111;-63
2022/08/17 12:58:27;;;;;;;11.13;3.13;;;31.50;99.90;;;;;;5069370;28;20088;-61
2022/08/17 13:01:03;;;;;;;22.20;3.72;;;31.40;99.90;;;;;;5066824;28;20475;-63
2022/08/17 13:03:37;;;;;;;11.10;3.20;;;31.50;99.90;;;;;;5051633;28;20117;-62
2022/08/17 13:06:10;;;;;;;10.15;2.85;;;31.40;99.90;;;;;;5067288;28;20081;-62
2022/08/17 13:08:37;;;;;;;11.50;3.60;;;31.40;99.90;;;;;;5067840;28;20558;-62
2022/08/17 13:11:08;;;;;;;16.00;3.53;;;31.40;99.90;;;;;;5068346;28;20075;-62
2022/08/17 13:13:38;;;;;;;17.45;3.95;;;31.30;99.90;;;;;;5069770;28;20083;-62
2022/08/17 13:16:20;;;;;;;12.02;2.78;;;31.30;99.90;;;;;;5068632;28;20433;-62
2022/08/17 13:19:05;;;;;;;15.60;3.70;;;31.30;99.90;;;;;;5068142;28;20632;-62
2022/08/17 13:21:32;;;;;;;11.80;3.20;;;31.30;99.90;;;;;;5068262;28;20171;-62
2022/08/17 13:24:12;;;;;;;14.30;3.42;;;31.20;99.90;;;;;;5066961;28;20084;-63
2022/08/17 13:26:49;;;;;;;11.63;3.22;;;31.30;99.90;;;;;;5068409;28;20076;-62
2022/08/17 13:29:24;;;;;;;11.45;3.20;;;31.20;99.90;;;;;;5068641;28;20417;-62
2022/08/17 13:32:11;;;;;;;15.05;3.50;;;31.10;99.90;;;;;;5069116;28;20082;-64
2022/08/17 13:34:46;;;;;;;24.70;3.97;;;31.10;99.90;;;;;;5051481;28;20077;-62
2022/08/17 13:37:43;;;;;;;20.17;4.10;;;31.10;99.90;;;;;;5051453;28;20076;-62
2022/08/17 13:40:08;;;;;;;20.55;3.90;;;31.10;99.90;;;;;;5068605;28;20072;-61
2022/08/17 13:42:44;;;;;;;15.60;3.55;;;31.10;99.90;;;;;;5068530;28;20542;-64
2022/08/17 13:45:30;;;;;;;19.20;4.15;;;31.10;99.90;;;;;;5067084;28;20088;-64
2022/08/17 13:48:08;;;;;;;15.02;3.88;;;31.10;99.90;;;;;;5068057;28;20526;-62
2022/08/17 13:50:54;;;;;;;20.02;4.15;;;31.10;99.90;;;;;;5068770;28;20106;-61